Time;durP1;ratioP1;P1;durP2;ratioP2;P2;SDS_P1;SDS_P2;PMS_P1;PMS_P2;Temp;Humidity;BMP_temperature;BMP_pressure;BME280_temperature;BME280_humidity;BME280_pressure;Samples;Min_cycle;Max_cycle;Signal;HPM_P1;HPM_P2
2023/04/26 00:00:14;;;;;;;9.00;3.50;;;;;;;7.93;83.11;99740.04;105365;279;38490;-73
2023/04/26 00:03:08;;;;;;;7.60;3.00;;;;;;;7.91;83.13;99744.83;105332;267;38704;-73
2023/04/26 00:05:42;;;;;;;6.50;2.80;;;;;;;7.89;83.05;99746.81;105362;283;39974;-73
2023/04/26 00:08:16;;;;;;;5.00;2.50;;;;;;;7.88;83.16;99745.80;105247;279;38906;-73
2023/04/26 00:10:50;;;;;;;6.00;2.70;;;;;;;7.88;83.09;99749.98;105371;279;38438;-73
2023/04/26 00:13:24;;;;;;;3.50;1.70;;;;;;;7.81;82.93;99755.45;105381;279;39666;-73
2023/04/26 00:15:58;;;;;;;2.60;1.60;;;;;;;7.73;82.95;99761.45;105794;279;38950;-73
2023/04/26 00:18:32;;;;;;;2.70;1.30;;;;;;;7.63;82.93;99764.23;105113;279;189566;-73
2023/04/26 00:21:06;;;;;;;3.10;1.20;;;;;;;7.58;83.25;99771.20;105790;279;40301;-73
2023/04/26 00:23:41;;;;;;;2.60;1.90;;;;;;;7.55;83.30;99778.23;105384;279;38791;-73
2023/04/26 00:26:14;;;;;;;2.40;1.10;;;;;;;7.48;83.39;99776.56;105355;279;38217;-73
2023/04/26 00:28:48;;;;;;;3.50;1.30;;;;;;;7.44;83.47;99771.00;105364;283;39409;-73
2023/04/26 00:31:22;;;;;;;1.50;1.10;;;;;;;7.42;83.48;99772.96;105309;279;39990;-73
2023/04/26 00:33:56;;;;;;;2.60;1.10;;;;;;;7.42;83.63;99777.85;105759;279;39897;-73
2023/04/26 00:36:31;;;;;;;2.20;1.20;;;;;;;7.36;83.43;99780.29;105786;279;38658;-73
2023/04/26 00:39:05;;;;;;;2.40;1.40;;;;;;;7.32;83.79;99786.52;105351;279;38600;-73
2023/04/26 00:41:39;;;;;;;3.20;1.20;;;;;;;7.29;83.76;99792.34;105363;279;38859;-73
2023/04/26 00:44:13;;;;;;;2.40;1.60;;;;;;;7.31;83.89;99796.61;105367;283;38753;-73
2023/04/26 00:46:47;;;;;;;3.10;1.50;;;;;;;7.33;83.86;99792.02;105265;279;174591;-73
2023/04/26 00:49:21;;;;;;;1.80;1.10;;;;;;;7.36;84.04;99793.99;105325;279;39638;-73
2023/04/26 00:51:56;;;;;;;2.20;1.40;;;;;;;7.42;84.26;99796.23;105372;279;38816;-73
2023/04/26 00:54:30;;;;;;;2.70;1.80;;;;;;;7.45;84.24;99797.16;105297;279;38421;-73
2023/04/26 00:57:05;;;;;;;1.90;1.30;;;;;;;7.45;84.07;99796.10;105787;279;38868;-73
2023/04/26 00:59:40;;;;;;;2.30;1.20;;;;;;;7.46;84.07;99800.27;105367;279;38807;-73
2023/04/26 01:02:14;;;;;;;3.60;1.60;;;;;;;7.48;84.10;99804.36;105356;279;39495;-72
2023/04/26 01:04:47;;;;;;;3.20;2.10;;;;;;;7.52;84.25;99801.95;105371;279;38475;-72
2023/04/26 01:07:21;;;;;;;2.40;2.00;;;;;;;7.55;84.25;99801.68;105383;279;39276;-72
2023/04/26 01:09:55;;;;;;;2.20;1.50;;;;;;;7.57;84.39;99804.89;105381;279;38925;-72
2023/04/26 01:12:29;;;;;;;1.80;1.30;;;;;;;7.61;84.50;99803.40;105345;279;38483;-72
2023/04/26 01:15:04;;;;;;;2.50;1.40;;;;;;;7.61;84.04;99799.20;105787;279;38731;-73
2023/04/26 01:17:38;;;;;;;2.10;1.30;;;;;;;7.63;84.28;99799.50;105362;279;39843;-73
2023/04/26 01:20:13;;;;;;;2.80;1.30;;;;;;;7.67;84.23;99804.55;105788;279;40572;-73
2023/04/26 01:22:47;;;;;;;2.90;1.40;;;;;;;7.67;83.99;99804.73;105773;279;40015;-73
2023/04/26 01:25:21;;;;;;;3.30;2.10;;;;;;;7.64;83.78;99808.64;105762;279;39415;-73
2023/04/26 01:27:55;;;;;;;3.50;1.40;;;;;;;7.64;83.96;99808.85;105370;279;38901;-73
2023/04/26 01:30:29;;;;;;;1.80;1.30;;;;;;;7.62;83.79;99807.52;105341;279;38261;-73
2023/04/26 01:33:03;;;;;;;2.30;1.50;;;;;;;7.60;83.73;99808.61;105797;279;38909;-73
2023/04/26 01:35:36;;;;;;;3.70;1.20;;;;;;;7.58;83.47;99809.55;105116;279;629075;-73
2023/04/26 01:38:11;;;;;;;2.30;1.40;;;;;;;7.57;83.53;99810.30;105334;279;38467;-73
2023/04/26 01:40:45;;;;;;;3.10;1.50;;;;;;;7.53;83.44;99813.73;105791;279;39614;-73
2023/04/26 01:43:20;;;;;;;2.70;1.50;;;;;;;7.49;83.53;99813.52;105321;279;39658;-73
2023/04/26 01:45:53;;;;;;;2.10;1.50;;;;;;;7.44;83.59;99814.91;105340;279;38331;-73
2023/04/26 01:48:27;;;;;;;2.10;1.30;;;;;;;7.40;83.61;99815.54;105329;279;39936;-73
2023/04/26 01:51:01;;;;;;;2.30;1.60;;;;;;;7.38;83.54;99814.40;105795;279;39913;-73
2023/04/26 01:53:35;;;;;;;2.60;1.30;;;;;;;7.33;83.31;99814.08;105364;279;38632;-73
2023/04/26 01:56:10;;;;;;;3.20;1.60;;;;;;;7.24;83.01;99809.34;105306;279;38639;-73
2023/04/26 01:58:44;;;;;;;3.50;1.60;;;;;;;7.13;83.07;99808.48;105374;279;39415;-73
2023/04/26 02:01:18;;;;;;;2.20;1.20;;;;;;;7.05;83.31;99804.57;105799;279;39158;-73
2023/04/26 02:03:52;;;;;;;1.80;1.50;;;;;;;7.02;83.40;99809.36;105369;279;39489;-73
2023/04/26 02:06:25;;;;;;;3.00;1.70;;;;;;;6.95;83.35;99808.36;105321;279;38554;-73
2023/04/26 02:08:59;;;;;;;1.90;1.50;;;;;;;6.89;83.53;99809.43;105794;279;38383;-73
2023/04/26 02:11:33;;;;;;;3.60;1.80;;;;;;;6.86;83.76;99810.39;105679;279;174620;-73
2023/04/26 02:14:07;;;;;;;3.30;1.60;;;;;;;6.84;84.09;99813.56;105344;279;38653;-73
2023/04/26 02:16:42;;;;;;;1.60;1.20;;;;;;;6.84;84.17;99817.59;105327;279;38749;-73
2023/04/26 02:19:16;;;;;;;3.00;1.60;;;;;;;6.85;84.56;99821.36;105804;279;38243;-73
2023/04/26 02:21:58;;;;;;;2.40;1.40;;;;;;;6.89;84.85;99824.50;105354;279;38819;-73
2023/04/26 02:24:32;;;;;;;1.80;1.40;;;;;;;6.92;85.02;99825.44;105799;279;38873;-73
2023/04/26 02:27:06;;;;;;;2.90;1.60;;;;;;;6.95;85.10;99823.80;105345;279;40004;-73
2023/04/26 02:29:40;;;;;;;3.40;1.70;;;;;;;6.98;85.37;99823.36;105373;279;38939;-73
2023/04/26 02:32:14;;;;;;;2.40;1.50;;;;;;;7.05;85.61;99825.05;105387;279;39418;-73
2023/04/26 02:34:48;;;;;;;2.90;1.50;;;;;;;7.11;85.53;99825.36;105651;279;174624;-73
2023/04/26 02:37:22;;;;;;;3.10;1.30;;;;;;;7.16;85.45;99822.41;105802;279;39988;-73
2023/04/26 02:39:56;;;;;;;3.00;1.50;;;;;;;7.16;85.19;99819.64;105339;279;38259;-73
2023/04/26 02:42:31;;;;;;;4.80;1.60;;;;;;;7.15;85.24;99819.35;105775;279;39470;-72
2023/04/26 02:45:06;;;;;;;4.20;2.00;;;;;;;7.17;85.22;99818.08;105332;279;39672;-73
2023/04/26 02:47:40;;;;;;;2.70;1.90;;;;;;;7.21;85.40;99821.23;105367;279;38596;-73
2023/04/26 02:50:15;;;;;;;6.50;2.80;;;;;;;7.26;85.23;99822.29;105378;279;38510;-73
2023/04/26 02:52:49;;;;;;;5.10;2.10;;;;;;;7.28;84.99;99825.54;105352;279;38273;-74
2023/04/26 02:55:23;;;;;;;4.00;2.70;;;;;;;7.25;84.94;99823.15;105046;281;38479;-73
2023/04/26 02:57:57;;;;;;;6.40;3.20;;;;;;;7.30;85.19;99825.30;105548;280;39279;-73
2023/04/26 03:00:32;;;;;;;11.70;3.30;;;;;;;7.31;84.76;99822.28;105575;280;38511;-73
2023/04/26 03:03:06;;;;;;;7.80;3.30;;;;;;;7.30;84.50;99824.05;105259;280;39554;-73
2023/04/26 03:05:40;;;;;;;7.50;3.50;;;;;;;7.28;84.27;99826.04;105309;280;39695;-73
2023/04/26 03:08:14;;;;;;;8.50;3.70;;;;;;;7.26;84.54;99826.95;105303;280;38231;-73
2023/04/26 03:10:49;;;;;;;10.10;4.30;;;;;;;7.28;84.32;99824.98;105077;281;39014;-73
2023/04/26 03:13:24;;;;;;;9.80;4.20;;;;;;;7.26;83.89;99828.52;105309;281;38498;-74
2023/04/26 03:15:58;;;;;;;9.60;4.30;;;;;;;7.19;83.42;99823.70;105543;280;38746;-72
2023/04/26 03:18:34;;;;;;;9.30;5.00;;;;;;;7.17;83.52;99822.92;105234;280;38511;-72
2023/04/26 03:21:09;;;;;;;9.00;4.00;;;;;;;7.12;83.26;99827.09;105096;281;39422;-72
2023/04/26 03:23:43;;;;;;;8.50;4.40;;;;;;;7.04;82.60;99825.78;105306;280;40024;-72
2023/04/26 03:26:17;;;;;;;8.90;4.30;;;;;;;6.95;82.24;99826.23;105254;281;38693;-73
2023/04/26 03:28:51;;;;;;;9.50;4.40;;;;;;;6.82;81.84;99825.59;105268;280;38383;-73
2023/04/26 03:31:25;;;;;;;10.80;4.90;;;;;;;6.67;81.60;99831.60;105557;280;38589;-73
2023/04/26 03:33:58;;;;;;;10.60;4.90;;;;;;;6.57;81.78;99836.08;105290;280;38726;-73
2023/04/26 03:36:32;;;;;;;14.80;5.30;;;;;;;6.46;81.83;99837.27;105275;280;38784;-72
2023/04/26 03:39:06;;;;;;;11.50;4.20;;;;;;;6.36;81.46;99838.63;105270;280;38495;-72
2023/04/26 03:41:40;;;;;;;10.30;4.30;;;;;;;6.23;81.40;99839.67;105296;280;39429;-72
2023/04/26 03:44:14;;;;;;;10.70;4.80;;;;;;;6.12;81.21;99846.73;105587;280;40277;-73
2023/04/26 03:46:48;;;;;;;11.90;4.90;;;;;;;6.01;81.25;99843.23;105235;280;38343;-73
2023/04/26 03:49:22;;;;;;;13.30;5.40;;;;;;;5.94;81.56;99847.25;105075;281;39988;-73
2023/04/26 03:51:56;;;;;;;9.10;4.80;;;;;;;5.87;81.83;99848.78;105248;280;38686;-72
2023/04/26 03:54:30;;;;;;;12.50;4.70;;;;;;;5.85;81.71;99850.75;105590;280;38396;-73
2023/04/26 03:57:04;;;;;;;13.60;4.60;;;;;;;5.77;81.38;99854.24;105548;280;39577;-73
2023/04/26 03:59:39;;;;;;;11.20;4.20;;;;;;;5.70;81.46;99855.81;105313;280;38214;-73
2023/04/26 04:02:13;;;;;;;13.20;5.80;;;;;;;5.67;82.35;99857.27;105239;280;38928;-73
2023/04/26 04:04:47;;;;;;;10.50;5.00;;;;;;;5.68;82.40;99853.08;105272;280;39815;-72
2023/04/26 04:07:21;;;;;;;10.70;4.60;;;;;;;5.67;82.32;99860.02;105178;278;174775;-74
2023/04/26 04:09:55;;;;;;;9.10;5.10;;;;;;;5.69;82.47;99860.67;105114;280;38263;-73
2023/04/26 04:12:29;;;;;;;10.90;5.40;;;;;;;5.75;82.38;99861.59;105265;273;38418;-73
2023/04/26 04:15:04;;;;;;;10.80;5.50;;;;;;;5.79;82.53;99857.47;105271;280;38277;-73
2023/04/26 04:17:38;;;;;;;10.50;5.30;;;;;;;5.86;82.50;99860.23;105545;280;38586;-73
2023/04/26 04:20:14;;;;;;;10.80;5.00;;;;;;;5.94;82.64;99861.27;105103;281;38531;-73
2023/04/26 04:22:48;;;;;;;11.60;4.90;;;;;;;6.14;83.13;99863.30;105569;280;39463;-73
2023/04/26 04:25:22;;;;;;;10.30;5.00;;;;;;;6.35;82.89;99859.95;105262;280;38239;-73
2023/04/26 04:27:57;;;;;;;10.70;4.80;;;;;;;6.58;83.23;99858.58;105210;280;39622;-73
2023/04/26 04:30:30;;;;;;;12.00;5.40;;;;;;;6.97;83.86;99858.59;105511;280;38604;-73
2023/04/26 04:33:04;;;;;;;10.30;4.80;;;;;;;7.38;83.63;99861.61;105283;281;40052;-73
2023/04/26 04:35:38;;;;;;;10.80;5.60;;;;;;;7.83;82.98;99861.98;105078;280;38265;-73
2023/04/26 04:38:13;;;;;;;11.30;5.30;;;;;;;8.41;84.55;99862.35;105252;280;39055;-73
2023/04/26 04:40:48;;;;;;;12.20;5.30;;;;;;;9.31;83.56;99857.98;105548;280;39805;-73
2023/04/26 04:43:22;;;;;;;13.80;5.00;;;;;;;9.97;79.99;99856.23;105562;280;38486;-73
2023/04/26 04:45:57;;;;;;;8.00;4.90;;;;;;;10.49;77.81;99862.11;105343;280;38446;-73
2023/04/26 04:48:33;;;;;;;12.20;4.70;;;;;;;11.09;75.94;99863.14;105295;280;38578;-73
2023/04/26 04:51:07;;;;;;;10.30;4.50;;;;;;;11.61;72.92;99866.13;105523;280;39636;-73
2023/04/26 04:53:41;;;;;;;8.70;4.20;;;;;;;12.11;70.95;99869.02;105318;280;38701;-73
2023/04/26 04:56:17;;;;;;;10.00;4.60;;;;;;;12.55;67.76;99862.66;105278;280;38663;-73
2023/04/26 04:58:51;;;;;;;7.50;3.90;;;;;;;12.97;65.41;99866.65;105561;280;39679;-73
2023/04/26 05:01:25;;;;;;;9.40;4.70;;;;;;;13.31;64.37;99868.95;104454;281;915804;-73
2023/04/26 05:03:59;;;;;;;9.20;5.10;;;;;;;13.60;62.61;99871.33;105282;280;39418;-73
2023/04/26 05:06:33;;;;;;;13.20;4.50;;;;;;;13.63;60.89;99874.31;105285;280;38292;-73
2023/04/26 05:09:06;;;;;;;10.30;4.90;;;;;;;13.29;59.86;99879.59;105279;280;39667;-74
2023/04/26 05:11:40;;;;;;;8.30;4.70;;;;;;;12.89;59.50;99881.66;105304;280;38729;-74
2023/04/26 05:14:15;;;;;;;9.50;4.40;;;;;;;12.59;59.79;99889.73;105288;280;38922;-74
2023/04/26 05:16:49;;;;;;;9.30;4.30;;;;;;;12.27;60.12;99894.46;105551;280;39419;-74
2023/04/26 05:19:23;;;;;;;8.70;4.30;;;;;;;11.85;60.05;99903.59;105232;280;39715;-74
2023/04/26 05:21:58;;;;;;;9.70;5.10;;;;;;;11.51;60.38;99901.78;105220;280;38588;-74
2023/04/26 05:24:34;;;;;;;6.80;4.30;;;;;;;11.32;60.93;99901.84;105197;280;38474;-74
2023/04/26 05:27:08;;;;;;;7.50;4.60;;;;;;;11.07;61.37;99902.65;105250;280;39408;-74
2023/04/26 05:29:42;;;;;;;10.50;4.50;;;;;;;11.17;62.60;99901.85;105406;280;174331;-74
2023/04/26 05:32:16;;;;;;;10.30;4.30;;;;;;;11.78;62.55;99903.73;105252;280;39695;-74
2023/04/26 05:34:50;;;;;;;11.90;5.50;;;;;;;12.67;62.10;99906.43;105078;280;38506;-74
2023/04/26 05:37:24;;;;;;;9.50;4.90;;;;;;;13.70;61.00;99906.46;105262;280;38214;-74
2023/04/26 05:39:58;;;;;;;11.30;4.10;;;;;;;14.49;58.22;99909.50;105226;280;39973;-74
2023/04/26 05:42:32;;;;;;;10.50;5.10;;;;;;;15.31;56.88;99907.66;105235;280;39702;-74
2023/04/26 05:45:09;;;;;;;8.30;4.90;;;;;;;16.21;55.93;99905.38;105069;281;38660;-74
2023/04/26 05:47:42;;;;;;;5.50;3.50;;;;;;;16.91;52.41;99901.33;105516;280;38402;-74
2023/04/26 05:50:17;;;;;;;9.60;3.90;;;;;;;17.56;50.51;99898.13;105221;281;39553;-74
2023/04/26 05:52:51;;;;;;;8.10;4.10;;;;;;;18.01;48.56;99901.11;105509;280;38496;-74
2023/04/26 05:55:25;;;;;;;6.90;3.60;;;;;;;18.47;46.77;99894.56;105546;280;39768;-74
2023/04/26 05:57:59;;;;;;;6.50;3.20;;;;;;;18.89;45.29;99894.08;105240;280;38417;-74
2023/04/26 06:00:33;;;;;;;9.60;4.10;;;;;;;19.43;44.00;99900.15;105529;280;38230;-74
2023/04/26 06:03:07;;;;;;;7.60;3.30;;;;;;;19.70;43.06;99900.77;105238;281;38240;-74
2023/04/26 06:05:41;;;;;;;9.20;3.60;;;;;;;20.11;42.26;99897.45;105567;280;39799;-74
2023/04/26 06:08:15;;;;;;;6.10;3.30;;;;;;;20.56;41.14;99898.55;105221;280;38429;-74
2023/04/26 06:10:49;;;;;;;7.40;3.20;;;;;;;20.85;39.91;99899.19;105544;280;38597;-74
2023/04/26 06:13:23;;;;;;;7.80;3.60;;;;;;;21.17;39.86;99897.06;105187;280;39415;-74
2023/04/26 06:15:59;;;;;;;6.50;3.80;;;;;;;21.61;39.10;99899.64;105235;280;38218;-74
2023/04/26 06:18:35;;;;;;;8.10;3.10;;;;;;;21.96;37.44;99899.30;105518;280;38894;-74
2023/04/26 06:21:10;;;;;;;6.70;3.30;;;;;;;22.42;36.92;99895.67;105220;280;38280;-74
2023/04/26 06:23:45;;;;;;;7.80;3.30;;;;;;;22.66;35.84;99892.13;105217;280;38263;-74
2023/04/26 06:26:19;;;;;;;6.50;3.20;;;;;;;22.86;35.13;99892.68;105226;280;38772;-74
2023/04/26 06:28:53;;;;;;;9.60;3.00;;;;;;;23.15;35.17;99892.59;105228;280;38401;-74
2023/04/26 06:31:27;;;;;;;6.50;2.90;;;;;;;23.43;34.43;99890.67;105523;280;38540;-75
2023/04/26 06:34:02;;;;;;;5.60;3.00;;;;;;;23.53;33.58;99893.41;105295;280;38228;-75
2023/04/26 06:36:37;;;;;;;6.00;2.50;;;;;;;23.55;32.77;99890.17;105262;280;38500;-75
2023/04/26 06:39:11;;;;;;;5.10;2.40;;;;;;;23.12;32.15;99892.34;105400;280;187806;-75
2023/04/26 06:41:45;;;;;;;7.50;2.80;;;;;;;22.51;33.10;99901.92;105272;280;38373;-75
2023/04/26 06:44:20;;;;;;;7.60;2.80;;;;;;;22.27;33.16;99903.35;105578;280;38218;-75
2023/04/26 06:46:57;;;;;;;6.90;2.90;;;;;;;22.36;33.12;99900.49;105255;280;38380;-75
2023/04/26 06:49:35;;;;;;;8.90;3.00;;;;;;;22.68;32.85;99902.65;105260;280;38549;-75
2023/04/26 06:52:09;;;;;;;;;;;;;;;22.70;31.94;99907.08;105282;280;38248;-76
2023/04/26 06:54:44;;;;;;;7.40;2.30;;;;;;;22.34;31.66;99907.66;105303;280;38286;-75
2023/04/26 06:57:22;;;;;;;6.50;2.60;;;;;;;22.06;32.30;99908.85;105245;280;38266;-75
2023/04/26 06:59:57;;;;;;;6.20;2.40;;;;;;;21.90;32.06;99907.46;105288;280;38233;-75
2023/04/26 07:02:33;;;;;;;7.20;3.00;;;;;;;21.56;31.24;99907.91;105237;280;38238;-80
2023/04/26 07:05:14;;;;;;;8.00;2.30;;;;;;;21.02;32.48;99909.89;105214;280;39860;-75
2023/04/26 07:07:52;;;;;;;7.30;2.90;;;;;;;20.80;32.64;99913.33;105097;281;38222;-75
2023/04/26 07:10:30;;;;;;;7.10;2.30;;;;;;;20.54;33.20;99913.66;104920;281;173730;-75
2023/04/26 07:13:06;;;;;;;9.70;3.10;;;;;;;20.87;34.02;99914.45;105273;280;38251;-75
2023/04/26 07:15:41;;;;;;;9.90;2.40;;;;;;;21.09;32.37;99917.86;105118;282;38588;-75
2023/04/26 07:18:16;;;;;;;8.70;2.40;;;;;;;20.95;32.36;99918.38;105114;280;39532;-75
2023/04/26 07:20:51;;;;;;;8.10;2.20;;;;;;;21.19;31.60;99920.64;105087;280;38459;-75
2023/04/26 07:23:25;;;;;;;6.90;2.50;;;;;;;20.74;31.39;99918.23;105286;280;38261;-76
2023/04/26 07:26:03;;;;;;;5.40;2.20;;;;;;;20.55;32.03;99919.05;105089;281;39838;-75
2023/04/26 07:28:38;;;;;;;7.20;2.20;;;;;;;21.10;32.84;99917.90;105252;280;38419;-75
2023/04/26 07:31:12;;;;;;;4.70;2.10;;;;;;;20.99;31.60;99922.44;105221;280;39460;-75
2023/04/26 07:33:46;;;;;;;6.50;2.00;;;;;;;20.25;31.87;99931.31;105556;280;39923;-75
2023/04/26 07:36:20;;;;;;;5.90;2.10;;;;;;;19.41;32.54;99933.89;105058;281;38258;-75
2023/04/26 07:38:54;;;;;;;5.40;2.20;;;;;;;19.08;33.63;99931.10;105251;280;38925;-75
2023/04/26 07:41:28;;;;;;;7.00;2.20;;;;;;;19.54;34.47;99930.02;105544;280;38981;-75
2023/04/26 07:44:03;;;;;;;6.30;2.40;;;;;;;20.32;33.34;99933.08;105066;281;38372;-75
2023/04/26 07:46:37;;;;;;;5.50;2.10;;;;;;;21.13;32.50;99929.70;105237;280;38796;-75
2023/04/26 07:49:11;;;;;;;5.00;2.00;;;;;;;21.98;31.67;99929.45;105271;280;38791;-75
2023/04/26 07:51:47;;;;;;;6.50;1.80;;;;;;;21.82;30.38;99929.84;105242;280;38444;-75
2023/04/26 07:54:21;;;;;;;7.10;2.30;;;;;;;21.14;29.83;99936.23;105047;280;38355;-75
2023/04/26 07:56:55;;;;;;;6.20;2.30;;;;;;;20.84;30.59;99939.19;105209;280;39683;-76
2023/04/26 07:59:29;;;;;;;7.70;2.70;;;;;;;21.22;31.45;99941.31;105209;280;38239;-76
2023/04/26 08:02:03;;;;;;;7.00;2.20;;;;;;;21.08;30.82;99944.14;105244;280;39591;-76
2023/04/26 08:04:37;;;;;;;4.90;1.80;;;;;;;20.37;30.66;99944.98;105529;280;38507;-75
2023/04/26 08:07:11;;;;;;;6.90;2.80;;;;;;;19.53;31.78;99950.81;105062;281;39929;-75
2023/04/26 08:09:45;;;;;;;5.30;2.20;;;;;;;18.74;32.10;99949.33;105283;280;38254;-75
2023/04/26 08:12:19;;;;;;;6.20;2.40;;;;;;;18.01;32.49;99954.95;105515;281;38246;-75
2023/04/26 08:14:56;;;;;;;6.00;2.40;;;;;;;18.01;33.72;99960.45;105057;280;38865;-75
2023/04/26 08:17:30;;;;;;;6.00;2.20;;;;;;;18.68;34.39;99956.68;105226;280;39518;-75
2023/04/26 08:20:05;;;;;;;8.80;2.70;;;;;;;19.45;33.26;99950.73;105101;281;39812;-75
2023/04/26 08:22:39;;;;;;;4.90;2.30;;;;;;;20.52;32.23;99952.91;105476;282;38717;-75
2023/04/26 08:25:14;;;;;;;6.60;2.20;;;;;;;21.43;31.48;99944.77;105478;282;39641;-75
2023/04/26 08:27:49;;;;;;;6.00;2.20;;;;;;;22.37;30.16;99942.70;105127;281;38274;-76
2023/04/26 08:30:23;;;;;;;6.20;2.40;;;;;;;22.48;29.21;99947.52;104936;282;38423;-76
2023/04/26 08:32:57;;;;;;;5.20;2.20;;;;;;;21.81;28.79;99945.58;105485;281;38379;-76
2023/04/26 08:35:31;;;;;;;4.80;2.20;;;;;;;20.78;28.68;99956.53;104970;282;38350;-76
2023/04/26 08:38:06;;;;;;;4.10;2.20;;;;;;;19.77;29.59;99958.40;105111;282;38256;-76
2023/04/26 08:40:42;;;;;;;3.40;1.80;;;;;;;18.86;30.63;99956.30;105100;282;39460;-76
2023/04/26 08:43:17;;;;;;;6.00;1.80;;;;;;;18.17;31.83;99962.22;104985;282;38451;-76
2023/04/26 08:45:51;;;;;;;5.40;2.10;;;;;;;18.69;33.71;99955.20;105074;282;39694;-76
2023/04/26 08:48:25;;;;;;;6.50;1.80;;;;;;;19.22;32.29;99951.92;105082;282;38519;-76
2023/04/26 08:50:59;;;;;;;6.20;1.80;;;;;;;18.91;32.30;99950.48;105445;281;38493;-76
2023/04/26 08:53:34;;;;;;;7.20;2.20;;;;;;;18.48;31.90;99952.95;105500;282;38250;-76
2023/04/26 08:56:09;;;;;;;4.90;2.10;;;;;;;17.95;32.38;99959.48;105071;282;38519;-76
2023/04/26 08:58:43;;;;;;;7.20;2.20;;;;;;;17.63;32.91;99961.33;105459;282;40062;-76
2023/04/26 09:01:18;;;;;;;5.60;2.00;;;;;;;17.25;33.73;99964.09;105352;282;171505;-75
2023/04/26 09:03:52;;;;;;;5.20;2.00;;;;;;;17.44;33.77;99968.70;105494;281;38269;-75
2023/04/26 09:06:26;;;;;;;5.30;1.90;;;;;;;18.39;34.03;99962.16;105471;282;39989;-76
2023/04/26 09:09:00;;;;;;;4.60;1.90;;;;;;;18.68;32.12;99963.59;105078;282;39582;-75
2023/04/26 09:11:48;;;;;;;4.70;1.60;;;;;;;18.32;31.85;99974.49;105096;282;38339;-76
2023/04/26 09:14:22;;;;;;;3.20;1.50;;;;;;;17.65;31.54;99979.16;105495;281;41400;-75
2023/04/26 09:16:56;;;;;;;6.00;1.70;;;;;;;17.06;32.16;99990.47;105097;282;39670;-75
2023/04/26 09:19:42;;;;;;;4.80;1.30;;;;;;;16.57;32.72;99997.61;105475;282;39324;-75
2023/04/26 09:22:16;;;;;;;4.60;1.70;;;;;;;16.94;34.30;99994.48;105185;280;39457;-75
2023/04/26 09:24:54;;;;;;;3.00;1.70;;;;;;;17.39;34.60;99996.77;105199;280;39662;-75
2023/04/26 09:27:35;;;;;;;6.40;1.70;;;;;;;17.26;32.77;99997.85;105496;280;39756;-75
2023/04/26 09:30:12;;;;;;;3.70;1.50;;;;;;;16.85;32.55;100003.95;105206;280;38739;-75
2023/04/26 09:32:53;;;;;;;5.10;1.80;;;;;;;16.38;32.79;100004.70;105212;280;38616;-74
2023/04/26 09:35:33;;;;;;;4.80;1.60;;;;;;;15.97;33.46;100007.96;104661;281;634878;-75
2023/04/26 09:38:08;;;;;;;4.50;1.30;;;;;;;15.58;33.97;100006.08;105045;270;38295;-75
2023/04/26 09:40:43;;;;;;;4.00;1.80;;;;;;;15.21;34.43;100004.27;105150;280;39812;-75
2023/04/26 09:43:18;;;;;;;6.70;1.60;;;;;;;14.85;34.72;100013.13;105075;281;38369;-75
2023/04/26 09:45:53;;;;;;;4.30;1.60;;;;;;;14.56;35.06;100009.43;105541;280;38379;-75
2023/04/26 09:48:29;;;;;;;4.30;1.70;;;;;;;14.33;35.48;100007.86;105215;280;38865;-75
2023/04/26 09:51:13;;;;;;;5.70;2.60;;;;;;;14.05;35.95;100016.30;105225;280;38564;-75
2023/04/26 09:53:50;;;;;;;4.10;2.00;;;;;;;13.85;36.27;100017.27;105545;280;38422;-75
2023/04/26 09:56:24;;;;;;;6.30;2.30;;;;;;;13.61;36.34;100018.45;105204;280;39630;-75
2023/04/26 09:59:04;;;;;;;8.00;2.40;;;;;;;13.36;36.86;100020.93;105544;280;40420;-74
2023/04/26 10:01:38;;;;;;;3.80;1.50;;;;;;;13.15;37.18;100024.14;105090;280;174341;-75
2023/04/26 10:04:12;;;;;;;5.10;1.90;;;;;;;12.94;37.64;100024.90;105198;280;38355;-75
2023/04/26 10:06:46;;;;;;;4.50;1.60;;;;;;;12.78;37.71;100022.95;105040;281;38683;-74
2023/04/26 10:09:20;;;;;;;7.20;1.80;;;;;;;12.67;38.69;100018.67;105528;281;38989;-74
2023/04/26 10:11:54;;;;;;;5.60;1.70;;;;;;;12.51;39.11;100021.60;105248;280;38704;-75
2023/04/26 10:14:29;;;;;;;5.20;2.20;;;;;;;12.49;39.94;100022.38;105551;280;39412;-74
2023/04/26 10:17:05;;;;;;;4.60;1.40;;;;;;;12.71;39.59;100027.19;105279;281;38394;-74
2023/04/26 10:19:42;;;;;;;4.60;1.70;;;;;;;12.93;39.03;100022.38;105528;280;39180;-75
2023/04/26 10:22:20;;;;;;;5.70;1.60;;;;;;;13.03;38.70;100019.57;105421;280;174286;-75
2023/04/26 10:24:55;;;;;;;4.80;1.90;;;;;;;13.07;38.43;100023.15;105063;281;38343;-74
2023/04/26 10:27:51;;;;;;;4.20;1.50;;;;;;;13.00;37.58;100027.92;105511;280;39652;-75
2023/04/26 10:30:26;;;;;;;4.40;1.90;;;;;;;12.75;37.57;100025.06;105213;280;39563;-74
2023/04/26 10:33:20;;;;;;;5.70;2.10;;;;;;;12.49;37.60;100028.00;105041;280;39705;-74
2023/04/26 10:36:11;;;;;;;3.50;1.60;;;;;;;12.27;37.83;100030.17;105238;280;38244;-74
2023/04/26 10:39:23;;;;;;;7.00;2.30;;;;;;;12.16;37.91;100033.34;105532;280;39899;-74
2023/04/26 10:42:21;;;;;;;5.70;1.80;;;;;;;12.18;38.67;100033.56;105530;280;39653;-74
2023/04/26 10:44:55;;;;;;;5.80;1.70;;;;;;;12.35;38.85;100036.40;105514;280;38435;-74
2023/04/26 10:47:35;;;;;;;4.90;1.70;;;;;;;12.54;39.23;100034.35;105290;280;39521;-74
2023/04/26 10:50:11;;;;;;;4.20;1.70;;;;;;;12.80;39.08;100035.48;105277;280;38228;-74
2023/04/26 10:53:08;;;;;;;7.50;2.20;;;;;;;13.01;38.72;100037.69;105279;280;39918;-74
2023/04/26 10:55:45;;;;;;;6.60;1.80;;;;;;;13.13;37.33;100040.16;105430;280;174312;-74
2023/04/26 10:58:34;;;;;;;5.90;1.60;;;;;;;13.14;37.20;100044.50;105230;280;38806;-75
2023/04/26 11:01:10;;;;;;;6.90;1.90;;;;;;;13.17;37.01;100045.60;105222;280;39599;-74
2023/04/26 11:04:01;;;;;;;6.00;2.30;;;;;;;13.12;37.19;100044.95;105119;280;174331;-74
2023/04/26 11:06:51;;;;;;;4.60;2.20;;;;;;;13.16;37.38;100045.61;105567;280;39462;-74
2023/04/26 11:09:39;;;;;;;5.70;2.20;;;;;;;13.17;37.51;100049.41;105250;269;38322;-73
2023/04/26 11:12:15;;;;;;;6.00;2.10;;;;;;;13.13;38.35;100049.98;105244;280;39643;-75
2023/04/26 11:14:49;;;;;;;7.70;1.90;;;;;;;13.06;38.77;100056.13;105235;280;38251;-74
2023/04/26 11:17:24;;;;;;;5.20;2.00;;;;;;;13.01;38.59;100058.71;105202;280;39387;-75
2023/04/26 11:19:58;;;;;;;6.90;2.50;;;;;;;12.96;37.95;100062.97;105218;280;38334;-75
2023/04/26 11:22:33;;;;;;;4.80;2.00;;;;;;;12.86;37.65;100062.80;105229;280;38384;-75
2023/04/26 11:25:08;;;;;;;6.30;1.90;;;;;;;12.76;37.82;100063.17;105570;280;38971;-75
2023/04/26 11:27:44;;;;;;;4.40;1.90;;;;;;;12.82;38.22;100063.91;105150;280;174292;-75
2023/04/26 11:30:20;;;;;;;4.50;2.00;;;;;;;13.09;38.83;100056.52;105519;269;39983;-75
2023/04/26 11:32:53;;;;;;;5.80;2.00;;;;;;;13.49;39.13;100052.98;105241;280;39893;-75
2023/04/26 11:35:28;;;;;;;5.50;1.70;;;;;;;13.96;38.82;100047.15;105510;280;39594;-74
2023/04/26 11:38:07;;;;;;;5.30;1.80;;;;;;;14.39;37.03;100044.13;105242;280;39437;-74
2023/04/26 11:40:41;;;;;;;3.00;1.60;;;;;;;14.56;36.00;100049.34;105533;280;38465;-74
2023/04/26 11:43:15;;;;;;;5.40;1.80;;;;;;;14.58;35.25;100051.33;105500;280;40025;-74
2023/04/26 11:45:49;;;;;;;5.70;2.30;;;;;;;14.50;34.87;100054.08;105256;280;38500;-74
2023/04/26 11:48:24;;;;;;;3.90;1.60;;;;;;;14.42;34.74;100060.27;105236;280;38360;-74
2023/04/26 11:50:58;;;;;;;6.30;1.60;;;;;;;14.30;34.29;100058.73;105284;280;38227;-74
2023/04/26 11:53:40;;;;;;;3.80;1.70;;;;;;;14.12;34.30;100059.41;105230;280;39344;-74
2023/04/26 11:56:21;;;;;;;7.80;1.90;;;;;;;13.80;34.27;100061.25;105508;280;38558;-74
2023/04/26 11:58:57;;;;;;;6.40;1.60;;;;;;;13.49;34.91;100069.63;105530;280;39435;-74
2023/04/26 12:01:31;;;;;;;6.60;2.00;;;;;;;13.32;35.56;100074.05;105536;280;39639;-74
2023/04/26 12:04:09;;;;;;;4.80;1.50;;;;;;;13.23;35.85;100076.28;105520;280;39202;-74
2023/04/26 12:06:48;;;;;;;5.60;1.60;;;;;;;13.21;36.47;100076.41;105218;280;39974;-74
2023/04/26 12:09:26;;;;;;;5.50;2.10;;;;;;;13.31;36.60;100076.23;105261;280;39741;-74
2023/04/26 12:12:05;;;;;;;5.50;2.10;;;;;;;13.32;35.07;100077.20;105389;280;189772;-74